This is the latest recevied weather packets stored in our database for station/object KE8YTO. If no packets are shown the sender has not sent any weather packets the latest 10 day(s).
| Time | Temp. | Humidity | Pressure | Rain* | Wind** | Luminosity | Snow |
|---|---|---|---|---|---|---|---|
| 1777166428 | 13.33° C | 71% | 992.8 hPa | 0 mm | - | - | - |
| 1777165261 | 13.89° C | 70% | 992.6 hPa | 0 mm | - | - | - |
| 1777164625 | 13.89° C | 69% | 992.4 hPa | 0 mm | - | - | - |
| 1777159232 | 18.33° C | 59% | 991.2 hPa | 0 mm | - | - | - |
| 1777156221 | 20° C | 56% | 990.4 hPa | 0 mm | - | - | - |
| 1777147818 | 21.11° C | 52% | 989.8 hPa | 0 mm | - | - | - |
| 1777147222 | 20.56° C | 52% | 989.8 hPa | 0 mm | - | - | - |
| 1777146052 | 20.56° C | 53% | 989.9 hPa | 0 mm | - | - | - |
| 1777145419 | 20.56° C | 53% | 989.9 hPa | 0 mm | - | - | - |
| 1777144228 | 20.56° C | 52% | 989.9 hPa | 0 mm | - | - | - |
| 1777140642 | 20° C | 54% | 990 hPa | 0 mm | - | - | - |
| 1777138818 | 18.89° C | 55% | 989.8 hPa | 0 mm | - | - | - |
| 1777132222 | 16.67° C | 59% | 990.4 hPa | 0 mm | - | - | - |
| 1777128617 | 15° C | 64% | 990.2 hPa | 0 mm | - | - | - |
| 1777125622 | 12.78° C | 69% | 990.3 hPa | 0 mm | - | - | - |
| 1777121420 | 11.67° C | 73% | 989.6 hPa | 0 mm | - | - | - |
| 1777115433 | 8.33° C | 86% | 988.3 hPa | 0 mm | - | - | - |
| 1777114819 | 8.33° C | 86% | 988.1 hPa | 0 mm | - | - | - |
| 1777114224 | 8.89° C | 86% | 987.9 hPa | 0 mm | - | - | - |
| 1777107644 | 8.89° C | 87% | 986.8 hPa | 0 mm | - | - | - |
| 1777101023 | 11.11° C | 85% | 985.5 hPa | 0 mm | - | - | - |
| 1777099832 | 11.67° C | 85% | 985.6 hPa | 0 mm | - | - | - |
| 1777096821 | 13.33° C | 89% | 985.3 hPa | 0 mm | - | - | - |
| 1777096246 | 13.89° C | 89% | 985.4 hPa | 0 mm | - | - | - |
| 1777093227 | 14.44° C | 87% | 985 hPa | 0 mm | - | - | - |
* Rain latest hour (hover to see other rain measurements)
** Current wind speed in m/s (hover to see current wind gust speed)